createdAt,value
2023-05-03T00:01:32.811Z,97856.78
2023-05-03T00:03:59.499Z,97864.38
2023-05-03T00:06:26.116Z,97857.81
2023-05-03T00:08:52.758Z,97864.97
2023-05-03T00:11:19.380Z,97851.91
2023-05-03T00:13:45.970Z,97853.50
2023-05-03T00:16:12.610Z,97860.63
2023-05-03T00:18:39.216Z,97862.06
2023-05-03T00:21:05.829Z,97853.31
2023-05-03T00:23:32.403Z,97857.75
2023-05-03T00:25:59.039Z,97853.50
2023-05-03T00:28:25.724Z,97851.22
2023-05-03T00:30:52.480Z,97851.69
2023-05-03T00:33:19.085Z,97856.22
2023-05-03T00:35:45.978Z,97854.16
2023-05-03T00:38:12.695Z,97847.47
2023-05-03T00:40:39.297Z,97852.56
2023-05-03T00:43:05.881Z,97855.63
2023-05-03T00:45:32.459Z,97849.66
2023-05-03T00:47:59.078Z,97862.34
2023-05-03T00:50:25.697Z,97856.41
2023-05-03T00:52:52.341Z,97858.88
2023-05-03T00:55:18.926Z,97864.97
2023-05-03T00:57:45.593Z,97864.16
2023-05-03T01:00:12.221Z,97859.44
2023-05-03T01:02:38.878Z,97863.69
2023-05-03T01:05:05.496Z,97858.88
2023-05-03T01:07:32.062Z,97859.06
2023-05-03T01:09:58.700Z,97852.16
2023-05-03T01:12:25.266Z,97847.03
2023-05-03T01:14:51.948Z,97856.03
2023-05-03T01:17:18.702Z,97851.75
2023-05-03T01:19:45.305Z,97853.78
2023-05-03T01:22:11.886Z,97855.19
2023-05-03T01:24:38.458Z,97852.38
2023-05-03T01:27:05.053Z,97854.41
2023-05-03T01:29:31.646Z,97861.34
2023-05-03T01:31:58.449Z,97855.41
2023-05-03T01:34:25.100Z,97851.50
2023-05-03T01:36:51.709Z,97851.53
2023-05-03T01:39:18.315Z,97851.91
2023-05-03T01:41:44.881Z,97849.28
2023-05-03T01:44:11.470Z,97856.63
2023-05-03T01:46:38.085Z,97851.09
2023-05-03T01:49:04.657Z,97848.44
2023-05-03T01:51:31.242Z,97849.69
2023-05-03T01:53:57.851Z,97849.31
2023-05-03T01:56:24.451Z,97853.56
2023-05-03T01:58:51.017Z,97850.72
2023-05-03T02:01:17.629Z,97843.75
2023-05-03T02:03:44.257Z,97847.44
2023-05-03T02:06:10.916Z,97847.25
2023-05-03T02:08:37.498Z,97847.09
2023-05-03T02:11:04.081Z,97848.69
2023-05-03T02:13:30.733Z,97847.66
2023-05-03T02:15:57.321Z,97846.66
2023-05-03T02:18:23.918Z,97846.25
2023-05-03T02:20:50.530Z,97842.13
2023-05-03T02:23:17.116Z,97850.72
2023-05-03T02:25:43.691Z,97846.25
2023-05-03T02:28:10.250Z,97847.25
2023-05-03T02:30:36.877Z,97840.13
2023-05-03T02:33:03.585Z,97845.81
2023-05-03T02:35:30.216Z,97839.31
2023-05-03T02:37:56.775Z,97842.38
2023-05-03T02:40:23.365Z,97837.47
2023-05-03T02:42:49.944Z,97846.44
2023-05-03T02:45:16.544Z,97831.97
2023-05-03T02:47:43.185Z,97830.97
2023-05-03T02:50:09.769Z,97824.22
2023-05-03T02:52:36.368Z,97829.75
2023-05-03T02:55:04.706Z,97825.88
2023-05-03T02:57:31.294Z,97825.06
2023-05-03T02:59:57.886Z,97827.50
2023-05-03T03:02:24.529Z,97836.88
2023-05-03T03:04:51.226Z,97843.16
2023-05-03T03:07:17.837Z,97841.34
2023-05-03T03:09:44.472Z,97841.34
2023-05-03T03:12:11.140Z,97840.75
2023-05-03T03:14:37.715Z,97849.09
2023-05-03T03:17:04.325Z,97839.91
2023-05-03T03:19:30.909Z,97848.69
2023-05-03T03:21:57.647Z,97836.25
2023-05-03T03:24:24.226Z,97834.44
2023-05-03T03:26:50.818Z,97844.81
2023-05-03T03:29:17.408Z,97842.16
2023-05-03T03:31:44.135Z,97847.88
2023-05-03T03:34:10.747Z,97849.31
2023-05-03T03:36:37.355Z,97856.03
2023-05-03T03:39:03.937Z,97851.94
2023-05-03T03:41:30.494Z,97857.44
2023-05-03T03:43:57.084Z,97852.16
2023-05-03T03:46:23.730Z,97853.13
2023-05-03T03:48:50.341Z,97862.94
2023-05-03T03:51:16.900Z,97855.19
2023-05-03T03:53:43.526Z,97851.13
2023-05-03T03:56:10.104Z,97855.59
2023-05-03T03:58:36.709Z,97861.28
2023-05-03T04:01:03.290Z,97857.63
2023-05-03T04:03:30.050Z,97869.25
2023-05-03T04:05:56.694Z,97868.03
2023-05-03T04:08:23.262Z,97871.66
2023-05-03T04:10:49.861Z,97875.78
2023-05-03T04:13:16.600Z,97877.41
2023-05-03T04:15:43.167Z,97870.09
2023-05-03T04:18:09.844Z,97884.34
2023-05-03T04:20:36.493Z,97886.59
2023-05-03T04:23:03.101Z,97888.41
2023-05-03T04:25:29.674Z,97888.44
2023-05-03T04:27:56.267Z,97881.50
2023-05-03T04:30:22.840Z,97883.94
2023-05-03T04:32:49.534Z,97886.75
2023-05-03T04:35:16.136Z,97891.28
2023-05-03T04:37:42.775Z,97887.78
2023-05-03T04:40:09.404Z,97891.25
2023-05-03T04:42:36.046Z,97891.47
2023-05-03T04:45:02.733Z,97894.72
2023-05-03T04:47:29.334Z,97887.41
2023-05-03T04:49:55.897Z,97896.19
2023-05-03T04:52:22.504Z,97892.88
2023-05-03T04:54:49.063Z,97899.63
2023-05-03T04:57:15.647Z,97900.44
2023-05-03T04:59:42.267Z,97900.69
2023-05-03T05:02:08.900Z,97901.69
2023-05-03T05:04:35.657Z,97901.50
2023-05-03T05:07:02.238Z,97906.59
2023-05-03T05:09:28.841Z,97906.56
2023-05-03T05:11:57.002Z,97911.03
2023-05-03T05:14:23.912Z,97903.28
2023-05-03T05:16:50.521Z,97911.03
2023-05-03T05:19:17.144Z,97911.03
2023-05-03T05:21:43.800Z,97913.22
2023-05-03T05:24:10.366Z,97915.06
2023-05-03T05:26:37.090Z,97916.25
2023-05-03T05:29:03.685Z,97906.25
2023-05-03T05:31:30.373Z,97913.94
2023-05-03T05:33:57.139Z,97917.03
2023-05-03T05:36:23.768Z,97917.59
2023-05-03T05:38:50.330Z,97917.19
2023-05-03T05:41:16.988Z,97920.50
2023-05-03T05:43:43.570Z,97918.66
2023-05-03T05:46:10.492Z,97922.50
2023-05-03T05:48:37.058Z,97927.19
2023-05-03T05:51:03.859Z,97930.69
2023-05-03T05:53:30.466Z,97925.94
2023-05-03T05:55:57.023Z,97935.28
2023-05-03T05:58:23.620Z,97935.88
2023-05-03T06:00:50.364Z,97932.31
2023-05-03T06:03:16.952Z,97936.75
2023-05-03T06:05:43.658Z,97930.06
2023-05-03T06:08:10.243Z,97933.44
2023-05-03T06:10:36.827Z,97933.91
2023-05-03T06:13:03.540Z,97934.53
2023-05-03T06:15:31.134Z,97931.25
2023-05-03T06:17:57.801Z,97930.56
2023-05-03T06:20:24.849Z,97936.50
2023-05-03T06:22:51.411Z,97932.38
2023-05-03T06:25:18.252Z,97939.63
2023-05-03T06:27:45.070Z,97936.75
2023-05-03T06:30:11.667Z,97929.94
2023-05-03T06:32:38.424Z,97938.53
2023-05-03T06:35:05.153Z,97937.28
2023-05-03T06:37:31.757Z,97947.69
2023-05-03T06:39:58.340Z,97936.41
2023-05-03T06:42:24.903Z,97947.06
2023-05-03T06:44:51.561Z,97944.72
2023-05-03T06:47:18.176Z,97942.16
2023-05-03T06:49:44.750Z,97941.81
2023-05-03T06:52:11.896Z,97952.56
2023-05-03T06:54:38.709Z,97952.41
2023-05-03T06:57:05.314Z,97947.53
2023-05-03T06:59:31.900Z,97946.78
2023-05-03T07:01:58.542Z,97944.19
2023-05-03T07:04:25.128Z,97943.47
2023-05-03T07:06:56.348Z,97951.03
2023-05-03T07:09:35.327Z,97953.38
2023-05-03T07:12:08.453Z,97943.16
2023-05-03T07:14:35.106Z,97944.09
2023-05-03T07:17:01.688Z,97943.28
2023-05-03T07:19:28.277Z,97945.25
2023-05-03T07:21:54.841Z,97947.47
2023-05-03T07:24:21.473Z,97949.53
2023-05-03T07:26:49.205Z,97943.84
2023-05-03T07:29:16.021Z,97935.97
2023-05-03T07:31:42.586Z,97939.44
2023-05-03T07:34:09.157Z,97939.66
2023-05-03T07:36:35.744Z,97943.75
2023-05-03T07:39:02.358Z,97944.78
2023-05-03T07:41:29.177Z,97936.44
2023-05-03T07:43:55.841Z,97938.03
2023-05-03T07:46:22.520Z,97940.34
2023-05-03T07:48:49.315Z,97934.25
2023-05-03T07:51:15.933Z,97934.03
2023-05-03T07:53:42.514Z,97927.31
2023-05-03T07:56:09.100Z,97932.09
2023-05-03T07:58:40.528Z,97935.16
2023-05-03T08:01:07.643Z,97929.09
2023-05-03T08:03:34.540Z,97938.53
2023-05-03T08:06:01.280Z,97941.91
2023-05-03T08:08:28.097Z,97940.38
2023-05-03T08:10:54.742Z,97939.00
2023-05-03T08:13:21.504Z,97939.50
2023-05-03T08:15:48.107Z,97939.75
2023-05-03T08:18:14.751Z,97940.19
2023-05-03T08:20:41.372Z,97943.28
2023-05-03T08:23:07.972Z,97946.28
2023-05-03T08:25:35.044Z,97946.22
2023-05-03T08:28:01.682Z,97950.72
2023-05-03T08:30:28.312Z,97953.13
2023-05-03T08:32:55.001Z,97952.63
2023-05-03T08:35:21.713Z,97948.06
2023-05-03T08:37:48.371Z,97949.28
2023-05-03T08:40:14.959Z,97955.19
2023-05-03T08:42:41.544Z,97948.31
2023-05-03T08:45:08.129Z,97950.28
2023-05-03T08:47:34.750Z,97953.13
2023-05-03T08:50:01.515Z,97958.06
2023-05-03T08:52:28.266Z,97951.66
2023-05-03T08:54:54.851Z,97953.22
2023-05-03T08:57:21.470Z,97956.19
2023-05-03T08:59:48.029Z,97955.72
2023-05-03T09:04:41.232Z,97965.25
2023-05-03T09:07:07.824Z,97959.75
2023-05-03T09:09:34.385Z,97963.53
2023-05-03T09:12:00.948Z,97958.34
2023-05-03T09:14:27.609Z,97956.72
2023-05-03T09:16:54.206Z,97957.88
2023-05-03T09:19:20.847Z,97960.28
2023-05-03T09:21:47.548Z,97957.69
2023-05-03T09:24:14.167Z,97954.03
2023-05-03T09:26:40.745Z,97956.03
2023-05-03T09:29:07.342Z,97957.28
2023-05-03T09:31:33.928Z,97963.25
2023-05-03T09:34:00.574Z,97957.59
2023-05-03T09:36:27.148Z,97954.38
2023-05-03T09:38:53.871Z,97952.06
2023-05-03T09:41:20.465Z,97947.69
2023-05-03T09:43:47.087Z,97946.16
2023-05-03T09:46:13.809Z,97934.31
2023-05-03T09:48:40.548Z,97936.75
2023-05-03T09:51:07.178Z,97937.75
2023-05-03T09:53:33.743Z,97945.53
2023-05-03T09:56:00.381Z,97939.59
2023-05-03T09:58:26.972Z,97946.03
2023-05-03T10:00:53.595Z,97937.00
2023-05-03T10:03:20.251Z,97941.50
2023-05-03T10:05:47.048Z,97942.88
2023-05-03T10:08:14.038Z,97942.09
2023-05-03T10:10:40.706Z,97949.28
2023-05-03T10:13:07.392Z,97945.66
2023-05-03T10:15:34.078Z,97939.84
2023-05-03T10:18:00.797Z,97947.97
2023-05-03T10:20:27.462Z,97949.31
2023-05-03T10:22:54.057Z,97939.22
2023-05-03T10:25:20.701Z,97943.47
2023-05-03T10:27:47.304Z,97940.94
2023-05-03T10:30:14.234Z,97932.94
2023-05-03T10:32:40.951Z,97930.22
2023-05-03T10:35:07.727Z,97928.25
2023-05-03T10:37:34.737Z,97931.91
2023-05-03T10:40:01.434Z,97932.47
2023-05-03T10:42:28.235Z,97933.25
2023-05-03T10:44:54.854Z,97931.31
2023-05-03T10:47:21.688Z,97934.69
2023-05-03T10:49:48.489Z,97934.38
2023-05-03T10:52:15.255Z,97931.44
2023-05-03T10:54:42.038Z,97930.38
2023-05-03T10:57:08.649Z,97929.34
2023-05-03T10:59:35.333Z,97926.63
2023-05-03T11:02:02.043Z,97925.53
2023-05-03T11:04:31.053Z,97918.91
2023-05-03T11:06:58.553Z,97919.88
2023-05-03T11:09:26.898Z,97930.00
2023-05-03T11:11:53.734Z,97920.53
2023-05-03T11:14:20.790Z,97931.69
2023-05-03T11:16:48.276Z,97926.09
2023-05-03T11:19:15.116Z,97928.34
2023-05-03T11:21:41.882Z,97929.47
2023-05-03T11:24:08.524Z,97933.72
2023-05-03T11:26:35.424Z,97937.59
2023-05-03T11:29:02.186Z,97934.41
2023-05-03T11:31:28.942Z,97934.81
2023-05-03T11:33:55.681Z,97936.47
2023-05-03T11:36:22.680Z,97933.66
2023-05-03T11:38:49.461Z,97931.78
2023-05-03T11:41:16.145Z,97938.44
2023-05-03T11:43:42.806Z,97934.13
2023-05-03T11:48:36.518Z,97937.00
2023-05-03T11:51:03.188Z,97936.28
2023-05-03T11:53:29.829Z,97931.91
2023-05-03T11:55:57.081Z,97942.88
2023-05-03T11:58:23.894Z,97939.75
2023-05-03T12:00:51.036Z,97941.06
2023-05-03T12:03:18.135Z,97939.22
2023-05-03T12:05:45.303Z,97944.13
2023-05-03T12:08:14.319Z,97943.97
2023-05-03T12:10:42.907Z,97948.03
2023-05-03T12:13:10.253Z,97950.94
2023-05-03T12:15:37.510Z,97956.16
2023-05-03T12:18:04.844Z,97954.72
2023-05-03T12:25:33.665Z,97962.84
2023-05-03T12:30:33.684Z,97961.84
2023-05-03T12:33:04.130Z,97956.38
2023-05-03T12:35:33.488Z,97964.19
2023-05-03T12:38:02.833Z,97953.16
2023-05-03T12:40:34.114Z,97948.91
2023-05-03T12:43:01.864Z,97955.47
2023-05-03T12:45:28.697Z,97951.63
2023-05-03T12:47:55.496Z,97954.03
2023-05-03T12:50:24.785Z,97950.00
2023-05-03T12:52:53.104Z,97948.56
2023-05-03T12:55:24.536Z,97944.69
2023-05-03T12:58:13.828Z,97944.75
2023-05-03T13:00:46.546Z,97942.81
2023-05-03T13:03:32.787Z,97938.50
2023-05-03T13:06:00.861Z,97940.41
2023-05-03T13:08:34.138Z,97936.31
2023-05-03T13:11:02.198Z,97944.66
2023-05-03T13:13:29.074Z,97936.25
2023-05-03T13:15:56.596Z,97939.28
2023-05-03T13:18:23.351Z,97942.53
2023-05-03T13:20:50.143Z,97936.50
2023-05-03T13:23:16.957Z,97941.53
2023-05-03T13:25:43.537Z,97933.28
2023-05-03T13:28:10.241Z,97932.72
2023-05-03T13:30:37.057Z,97930.97
2023-05-03T13:33:03.910Z,97926.44
2023-05-03T13:35:30.692Z,97915.69
2023-05-03T13:37:57.425Z,97915.56
2023-05-03T13:40:24.071Z,97916.69
2023-05-03T13:42:50.978Z,97913.16
2023-05-03T13:45:17.872Z,97920.75
2023-05-03T13:50:14.039Z,97914.69
2023-05-03T13:52:40.832Z,97910.47
2023-05-03T13:55:07.756Z,97914.59
2023-05-03T13:57:34.490Z,97911.22
2023-05-03T14:00:01.447Z,97913.25
2023-05-03T14:02:28.353Z,97911.69
2023-05-03T14:04:55.095Z,97910.06
2023-05-03T14:07:21.908Z,97912.78
2023-05-03T14:09:48.739Z,97914.94
2023-05-03T14:12:15.351Z,97922.94
2023-05-03T14:14:42.311Z,97921.28
2023-05-03T14:17:09.155Z,97910.47
2023-05-03T14:19:35.984Z,97915.44
2023-05-03T14:22:02.865Z,97918.09
2023-05-03T14:24:29.707Z,97921.59
2023-05-03T14:26:56.633Z,97923.78
2023-05-03T14:29:23.293Z,97920.41
2023-05-03T14:31:50.021Z,97920.75
2023-05-03T14:34:16.847Z,97923.88
2023-05-03T14:36:43.754Z,97920.16
2023-05-03T14:39:10.697Z,97922.13
2023-05-03T14:41:37.465Z,97930.41
2023-05-03T14:44:04.154Z,97930.63
2023-05-03T14:46:31.041Z,97932.16
2023-05-03T14:48:57.738Z,97936.78
2023-05-03T14:51:24.390Z,97931.53
2023-05-03T14:53:51.320Z,97933.41
2023-05-03T14:56:18.065Z,97923.97
2023-05-03T14:58:44.775Z,97924.09
2023-05-03T15:01:11.442Z,97928.47
2023-05-03T15:03:38.530Z,97934.16
2023-05-03T15:06:05.146Z,97937.06
2023-05-03T15:08:31.730Z,97940.22
2023-05-03T15:10:58.394Z,97943.38
2023-05-03T15:13:25.210Z,97937.03
2023-05-03T15:15:52.187Z,97938.75
2023-05-03T15:18:19.355Z,97940.63
2023-05-03T15:20:46.280Z,97946.16
2023-05-03T15:23:13.013Z,97939.81
2023-05-03T15:25:39.658Z,97940.63
2023-05-03T15:28:08.528Z,97939.69
2023-05-03T15:30:35.243Z,97946.78
2023-05-03T15:33:02.097Z,97948.66
2023-05-03T15:35:28.816Z,97947.13
2023-05-03T15:37:55.434Z,97952.47
2023-05-03T15:40:24.459Z,97950.25
2023-05-03T15:42:52.818Z,97949.59
2023-05-03T15:45:19.458Z,97947.94
2023-05-03T15:47:46.176Z,97949.00
2023-05-03T15:50:12.957Z,97947.25
2023-05-03T15:52:39.737Z,97949.56
2023-05-03T15:55:06.330Z,97949.09
2023-05-03T15:57:32.944Z,97951.88
2023-05-03T15:59:59.515Z,97945.13
2023-05-03T16:02:26.075Z,97949.44
2023-05-03T16:04:52.725Z,97956.78
2023-05-03T16:07:19.380Z,97946.91
2023-05-03T16:09:45.993Z,97947.16
2023-05-03T16:12:12.593Z,97951.53
2023-05-03T16:14:39.170Z,97945.25
2023-05-03T16:17:05.750Z,97956.97
2023-05-03T16:19:32.368Z,97947.25
2023-05-03T16:21:58.966Z,97947.34
2023-05-03T16:24:25.615Z,97948.84
2023-05-03T16:26:52.227Z,97946.34
2023-05-03T16:29:18.799Z,97941.09
2023-05-03T16:31:45.359Z,97933.63
2023-05-03T16:34:11.989Z,97934.53
2023-05-03T16:36:39.889Z,97931.78
2023-05-03T16:39:06.567Z,97933.41
2023-05-03T16:41:33.167Z,97930.25
2023-05-03T16:43:59.718Z,97932.97
2023-05-03T16:46:26.402Z,97932.22
2023-05-03T16:48:53.033Z,97940.84
2023-05-03T16:51:19.647Z,97930.25
2023-05-03T16:53:46.235Z,97932.13
2023-05-03T16:56:12.828Z,97938.28
2023-05-03T16:58:39.407Z,97934.81
2023-05-03T17:01:06.048Z,97943.31
2023-05-03T17:03:32.822Z,97940.16
2023-05-03T17:06:00.316Z,97938.53
2023-05-03T17:08:28.139Z,97948.72
2023-05-03T17:10:54.741Z,97944.44
2023-05-03T17:13:21.496Z,97949.69
2023-05-03T17:15:48.204Z,97948.75
2023-05-03T17:18:14.927Z,97948.53
2023-05-03T17:20:41.584Z,97944.66
2023-05-03T17:23:08.158Z,97958.13
2023-05-03T17:25:34.758Z,97961.53
2023-05-03T17:28:01.363Z,97961.88
2023-05-03T17:30:27.920Z,97958.94
2023-05-03T17:32:54.582Z,97964.41
2023-05-03T17:35:21.464Z,97965.00
2023-05-03T17:37:48.082Z,97966.94
2023-05-03T17:40:14.658Z,97969.16
2023-05-03T17:42:41.686Z,97972.53
2023-05-03T17:45:08.297Z,97977.06
2023-05-03T17:47:35.172Z,97976.94
2023-05-03T17:50:02.085Z,97988.63
2023-05-03T17:52:28.845Z,97988.13
2023-05-03T17:54:55.429Z,97993.47
2023-05-03T17:57:21.991Z,97990.09
2023-05-03T17:59:48.666Z,97990.66
2023-05-03T18:02:15.296Z,97992.47
2023-05-03T18:04:41.877Z,97993.41
2023-05-03T18:07:08.482Z,97993.75
2023-05-03T18:09:35.061Z,97997.91
2023-05-03T18:12:01.715Z,98000.28
2023-05-03T18:14:28.303Z,97999.72
2023-05-03T18:16:55.081Z,98000.28
2023-05-03T18:19:21.896Z,98004.59
2023-05-03T18:21:48.853Z,98003.50
2023-05-03T18:24:15.592Z,98010.16
2023-05-03T18:26:42.213Z,98007.63
2023-05-03T18:29:08.846Z,98009.19
2023-05-03T18:31:35.475Z,98009.38
2023-05-03T18:34:02.334Z,98019.25
2023-05-03T18:36:28.949Z,98017.56
2023-05-03T18:38:55.513Z,98021.84
2023-05-03T18:41:22.657Z,98024.00
2023-05-03T18:43:49.246Z,98024.66
2023-05-03T18:46:16.172Z,98029.56
2023-05-03T18:48:42.804Z,98031.56
2023-05-03T18:51:09.376Z,98033.84
2023-05-03T18:53:35.968Z,98037.53
2023-05-03T18:56:02.542Z,98037.66
2023-05-03T18:58:29.157Z,98041.16
2023-05-03T19:00:55.768Z,98051.44
2023-05-03T19:03:22.373Z,98045.28
2023-05-03T19:05:49.012Z,98050.31
2023-05-03T19:08:15.596Z,98049.50
2023-05-03T19:10:42.267Z,98042.91
2023-05-03T19:13:08.951Z,98045.31
2023-05-03T19:15:35.539Z,98046.94
2023-05-03T19:18:02.201Z,98053.88
2023-05-03T19:20:28.945Z,98050.56
2023-05-03T19:22:55.537Z,98043.91
2023-05-03T19:25:22.119Z,98048.63
2023-05-03T19:27:48.736Z,98048.19
2023-05-03T19:30:16.675Z,98044.44
2023-05-03T19:32:43.364Z,98044.16
2023-05-03T19:35:10.010Z,98050.72
2023-05-03T19:37:36.616Z,98059.81
2023-05-03T19:40:03.446Z,98053.66
2023-05-03T19:42:30.203Z,98054.22
2023-05-03T19:44:56.789Z,98050.69
2023-05-03T19:47:23.587Z,98043.84
2023-05-03T19:49:50.221Z,98051.81
2023-05-03T19:52:16.820Z,98049.59
2023-05-03T19:54:43.382Z,98055.59
2023-05-03T19:57:09.938Z,98053.44
2023-05-03T19:59:36.517Z,98048.13
2023-05-03T20:02:03.368Z,98048.66
2023-05-03T20:04:30.137Z,98045.78
2023-05-03T20:06:56.736Z,98051.00
2023-05-03T20:09:23.814Z,98045.66
2023-05-03T20:11:50.437Z,98055.13
2023-05-03T20:14:16.999Z,98053.38
2023-05-03T20:16:43.611Z,98050.91
2023-05-03T20:19:10.254Z,98047.75
2023-05-03T20:21:37.894Z,98043.44
2023-05-03T20:24:04.563Z,98047.63
2023-05-03T20:26:31.154Z,98047.81
2023-05-03T20:28:57.778Z,98049.47
2023-05-03T20:31:24.435Z,98042.19
2023-05-03T20:33:51.084Z,98050.91
2023-05-03T20:36:17.872Z,98048.44
2023-05-03T20:38:44.422Z,98048.25
2023-05-03T20:41:11.052Z,98049.72
2023-05-03T20:43:37.650Z,98045.22
2023-05-03T20:46:04.289Z,98038.84
2023-05-03T20:48:30.961Z,98044.97
2023-05-03T20:50:57.604Z,98047.75
2023-05-03T20:53:24.208Z,98041.19
2023-05-03T20:55:50.893Z,98042.81
2023-05-03T20:58:17.491Z,98036.28
2023-05-03T21:00:44.082Z,98036.75
2023-05-03T21:03:10.714Z,98038.28
2023-05-03T21:05:37.390Z,98031.56
2023-05-03T21:08:03.983Z,98037.69
2023-05-03T21:10:30.615Z,98032.19
2023-05-03T21:12:57.240Z,98035.84
2023-05-03T21:15:23.932Z,98033.19
2023-05-03T21:17:50.550Z,98024.38
2023-05-03T21:20:17.151Z,98030.69
2023-05-03T21:22:43.831Z,98028.28
2023-05-03T21:25:10.440Z,98029.91
2023-05-03T21:27:37.061Z,98028.72
2023-05-03T21:30:03.916Z,98025.66
2023-05-03T21:32:30.721Z,98018.91
2023-05-03T21:34:57.318Z,98022.56
2023-05-03T21:37:24.004Z,98024.59
2023-05-03T21:40:01.023Z,98028.94
2023-05-03T21:42:28.828Z,98028.09
2023-05-03T21:44:55.411Z,98026.47
2023-05-03T21:47:22.918Z,98028.75
2023-05-03T21:49:49.482Z,98030.00
2023-05-03T21:52:16.074Z,98024.94
2023-05-03T21:54:42.646Z,98027.59
2023-05-03T21:57:09.222Z,98026.59
2023-05-03T21:59:35.831Z,98032.34
2023-05-03T22:02:02.690Z,98032.91
2023-05-03T22:04:29.414Z,98035.72
2023-05-03T22:06:55.996Z,98034.34
2023-05-03T22:09:22.615Z,98037.41
2023-05-03T22:11:49.275Z,98036.00
2023-05-03T22:14:17.223Z,98034.59
2023-05-03T22:16:43.826Z,98024.78
2023-05-03T22:19:10.741Z,98031.69
2023-05-03T22:21:37.285Z,98031.31
2023-05-03T22:24:06.408Z,98027.03
2023-05-03T22:26:33.057Z,98027.03
2023-05-03T22:28:59.653Z,98034.38
2023-05-03T22:31:26.268Z,98027.44
2023-05-03T22:33:53.089Z,98029.28
2023-05-03T22:36:19.724Z,98024.97
2023-05-03T22:38:46.356Z,98032.56
2023-05-03T22:41:12.993Z,98029.47
2023-05-03T22:43:39.573Z,98028.47
2023-05-03T22:46:06.176Z,98031.09
2023-05-03T22:48:32.800Z,98025.81
2023-05-03T22:50:59.364Z,98023.97
2023-05-03T22:53:25.984Z,98029.06
2023-05-03T22:55:52.546Z,98027.03
2023-05-03T22:58:19.213Z,98029.31
2023-05-03T23:00:45.853Z,98032.78
2023-05-03T23:03:12.577Z,98027.66
2023-05-03T23:05:39.352Z,98025.78
2023-05-03T23:08:05.940Z,98025.81
2023-05-03T23:10:32.517Z,98022.94
2023-05-03T23:12:59.199Z,98020.50
2023-05-03T23:15:25.847Z,98022.13
2023-05-03T23:17:52.702Z,98014.97
2023-05-03T23:20:19.369Z,98025.00
2023-05-03T23:22:46.122Z,98023.78
2023-05-03T23:25:12.685Z,98015.63
2023-05-03T23:27:39.299Z,98017.06
2023-05-03T23:30:06.386Z,98014.00
2023-05-03T23:32:33.739Z,98006.88
2023-05-03T23:35:00.838Z,98007.66
2023-05-03T23:37:27.430Z,98001.16
2023-05-03T23:39:54.035Z,98010.75
2023-05-03T23:42:20.608Z,98009.31
2023-05-03T23:44:55.223Z,98008.91
2023-05-03T23:47:22.516Z,98005.84
2023-05-03T23:49:49.094Z,97999.13
2023-05-03T23:52:15.678Z,98005.25
2023-05-03T23:54:43.472Z,98003.44
2023-05-03T23:57:10.122Z,98004.03
2023-05-03T23:59:36.680Z,98002.00
